sensor_id;sensor_type;location;lat;lon;timestamp;P1;durP1;ratioP1;P2;durP2;ratioP2
17854;SDS011;9053;53.358;6.382;2023-06-26T00:02:12;9.00;;;8.10;;
17854;SDS011;9053;53.358;6.382;2023-06-26T00:04:42;9.90;;;8.98;;
17854;SDS011;9053;53.358;6.382;2023-06-26T00:07:15;9.50;;;8.63;;
17854;SDS011;9053;53.358;6.382;2023-06-26T00:09:45;8.60;;;7.80;;
17854;SDS011;9053;53.358;6.382;2023-06-26T00:12:15;9.40;;;8.40;;
17854;SDS011;9053;53.358;6.382;2023-06-26T00:14:45;10.40;;;9.40;;
17854;SDS011;9053;53.358;6.382;2023-06-26T00:17:15;9.13;;;8.23;;
17854;SDS011;9053;53.358;6.382;2023-06-26T00:19:45;10.25;;;9.18;;
17854;SDS011;9053;53.358;6.382;2023-06-26T00:22:17;9.52;;;8.52;;
17854;SDS011;9053;53.358;6.382;2023-06-26T00:24:47;9.82;;;8.88;;
17854;SDS011;9053;53.358;6.382;2023-06-26T00:27:17;10.52;;;9.52;;
17854;SDS011;9053;53.358;6.382;2023-06-26T00:29:47;8.60;;;7.80;;
17854;SDS011;9053;53.358;6.382;2023-06-26T00:32:19;9.25;;;8.00;;
17854;SDS011;9053;53.358;6.382;2023-06-26T00:34:49;8.43;;;7.63;;
17854;SDS011;9053;53.358;6.382;2023-06-26T00:37:22;8.15;;;7.35;;
17854;SDS011;9053;53.358;6.382;2023-06-26T00:39:52;9.02;;;8.15;;
17854;SDS011;9053;53.358;6.382;2023-06-26T00:42:22;8.52;;;7.70;;
17854;SDS011;9053;53.358;6.382;2023-06-26T00:44:52;8.18;;;7.38;;
17854;SDS011;9053;53.358;6.382;2023-06-26T00:47:22;7.72;;;6.93;;
17854;SDS011;9053;53.358;6.382;2023-06-26T00:49:54;8.32;;;7.53;;
17854;SDS011;9053;53.358;6.382;2023-06-26T00:52:27;8.10;;;7.28;;
17854;SDS011;9053;53.358;6.382;2023-06-26T00:54:57;8.25;;;7.45;;
17854;SDS011;9053;53.358;6.382;2023-06-26T00:57:30;8.15;;;7.35;;
17854;SDS011;9053;53.358;6.382;2023-06-26T01:00:00;7.80;;;7.00;;
17854;SDS011;9053;53.358;6.382;2023-06-26T01:02:31;7.88;;;7.18;;
17854;SDS011;9053;53.358;6.382;2023-06-26T01:05:04;8.40;;;7.60;;
17854;SDS011;9053;53.358;6.382;2023-06-26T01:07:42;8.60;;;7.78;;
17854;SDS011;9053;53.358;6.382;2023-06-26T01:10:18;8.90;;;8.00;;
17854;SDS011;9053;53.358;6.382;2023-06-26T01:12:48;8.32;;;7.53;;
17854;SDS011;9053;53.358;6.382;2023-06-26T01:15:19;8.35;;;7.55;;
17854;SDS011;9053;53.358;6.382;2023-06-26T01:17:49;8.32;;;7.53;;
17854;SDS011;9053;53.358;6.382;2023-06-26T01:20:20;8.25;;;7.45;;
17854;SDS011;9053;53.358;6.382;2023-06-26T01:22:56;10.85;;;9.68;;
17854;SDS011;9053;53.358;6.382;2023-06-26T01:25:36;8.45;;;7.65;;
17854;SDS011;9053;53.358;6.382;2023-06-26T01:28:13;8.80;;;8.00;;
17854;SDS011;9053;53.358;6.382;2023-06-26T01:30:48;9.35;;;8.15;;
17854;SDS011;9053;53.358;6.382;2023-06-26T01:33:20;8.00;;;7.20;;
17854;SDS011;9053;53.358;6.382;2023-06-26T01:35:50;9.85;;;8.82;;
17854;SDS011;9053;53.358;6.382;2023-06-26T01:38:22;8.77;;;7.65;;
17854;SDS011;9053;53.358;6.382;2023-06-26T01:40:52;9.38;;;8.48;;
17854;SDS011;9053;53.358;6.382;2023-06-26T01:43:27;8.95;;;8.05;;
17854;SDS011;9053;53.358;6.382;2023-06-26T01:46:01;9.18;;;8.27;;
17854;SDS011;9053;53.358;6.382;2023-06-26T01:48:36;9.73;;;8.82;;
17854;SDS011;9053;53.358;6.382;2023-06-26T01:51:14;9.68;;;8.60;;
17854;SDS011;9053;53.358;6.382;2023-06-26T01:53:48;11.30;;;10.20;;
17854;SDS011;9053;53.358;6.382;2023-06-26T01:56:22;11.60;;;10.43;;
17854;SDS011;9053;53.358;6.382;2023-06-26T01:58:55;10.68;;;9.57;;
17854;SDS011;9053;53.358;6.382;2023-06-26T02:01:27;10.65;;;9.35;;
17854;SDS011;9053;53.358;6.382;2023-06-26T02:03:59;10.70;;;9.57;;
17854;SDS011;9053;53.358;6.382;2023-06-26T02:06:29;9.75;;;8.75;;
17854;SDS011;9053;53.358;6.382;2023-06-26T02:08:59;9.07;;;8.18;;
17854;SDS011;9053;53.358;6.382;2023-06-26T02:11:30;8.30;;;7.55;;
17854;SDS011;9053;53.358;6.382;2023-06-26T02:14:02;9.23;;;8.32;;
17854;SDS011;9053;53.358;6.382;2023-06-26T02:16:32;10.00;;;9.00;;
17854;SDS011;9053;53.358;6.382;2023-06-26T02:19:03;9.13;;;8.10;;
17854;SDS011;9053;53.358;6.382;2023-06-26T02:21:33;8.60;;;7.80;;
17854;SDS011;9053;53.358;6.382;2023-06-26T02:24:05;9.93;;;8.45;;
17854;SDS011;9053;53.358;6.382;2023-06-26T02:26:36;10.68;;;8.88;;
17854;SDS011;9053;53.358;6.382;2023-06-26T02:29:08;9.57;;;8.68;;
17854;SDS011;9053;53.358;6.382;2023-06-26T02:31:38;9.98;;;8.98;;
17854;SDS011;9053;53.358;6.382;2023-06-26T02:34:08;9.70;;;8.70;;
17854;SDS011;9053;53.358;6.382;2023-06-26T02:36:40;9.73;;;8.70;;
17854;SDS011;9053;53.358;6.382;2023-06-26T02:39:10;9.18;;;8.38;;
17854;SDS011;9053;53.358;6.382;2023-06-26T02:41:40;9.88;;;8.88;;
17854;SDS011;9053;53.358;6.382;2023-06-26T02:44:17;9.10;;;8.20;;
17854;SDS011;9053;53.358;6.382;2023-06-26T02:46:48;9.02;;;8.20;;
17854;SDS011;9053;53.358;6.382;2023-06-26T02:49:18;9.07;;;8.18;;
17854;SDS011;9053;53.358;6.382;2023-06-26T02:51:51;10.23;;;9.15;;
17854;SDS011;9053;53.358;6.382;2023-06-26T02:54:20;9.55;;;8.65;;
17854;SDS011;9053;53.358;6.382;2023-06-26T02:56:50;9.63;;;8.73;;
17854;SDS011;9053;53.358;6.382;2023-06-26T02:59:23;10.00;;;9.00;;
17854;SDS011;9053;53.358;6.382;2023-06-26T03:01:53;10.35;;;9.35;;
17854;SDS011;9053;53.358;6.382;2023-06-26T03:04:23;10.30;;;9.13;;
17854;SDS011;9053;53.358;6.382;2023-06-26T03:06:53;9.73;;;8.45;;
17854;SDS011;9053;53.358;6.382;2023-06-26T03:09:25;10.63;;;9.52;;
17854;SDS011;9053;53.358;6.382;2023-06-26T03:11:55;9.75;;;8.85;;
17854;SDS011;9053;53.358;6.382;2023-06-26T03:14:27;9.73;;;8.70;;
17854;SDS011;9053;53.358;6.382;2023-06-26T03:16:58;13.20;;;11.88;;
17854;SDS011;9053;53.358;6.382;2023-06-26T03:19:30;10.88;;;9.88;;
17854;SDS011;9053;53.358;6.382;2023-06-26T03:22:04;9.80;;;8.90;;
17854;SDS011;9053;53.358;6.382;2023-06-26T03:24:34;11.15;;;10.05;;
17854;SDS011;9053;53.358;6.382;2023-06-26T03:27:10;11.30;;;10.20;;
17854;SDS011;9053;53.358;6.382;2023-06-26T03:29:45;9.95;;;8.93;;
17854;SDS011;9053;53.358;6.382;2023-06-26T03:32:15;9.88;;;8.88;;
17854;SDS011;9053;53.358;6.382;2023-06-26T03:34:45;10.57;;;9.48;;
17854;SDS011;9053;53.358;6.382;2023-06-26T03:37:15;10.07;;;9.07;;
17854;SDS011;9053;53.358;6.382;2023-06-26T03:39:45;9.27;;;8.40;;
17854;SDS011;9053;53.358;6.382;2023-06-26T03:42:15;9.27;;;8.35;;
17854;SDS011;9053;53.358;6.382;2023-06-26T03:44:47;9.15;;;8.25;;
17854;SDS011;9053;53.358;6.382;2023-06-26T03:47:17;10.18;;;9.18;;
17854;SDS011;9053;53.358;6.382;2023-06-26T03:49:47;10.20;;;9.20;;
17854;SDS011;9053;53.358;6.382;2023-06-26T03:52:17;9.77;;;8.77;;
17854;SDS011;9053;53.358;6.382;2023-06-26T03:54:47;9.52;;;8.50;;
17854;SDS011;9053;53.358;6.382;2023-06-26T03:57:17;9.88;;;8.88;;
17854;SDS011;9053;53.358;6.382;2023-06-26T03:59:50;9.15;;;8.25;;
17854;SDS011;9053;53.358;6.382;2023-06-26T04:02:21;12.55;;;11.25;;
17854;SDS011;9053;53.358;6.382;2023-06-26T04:04:53;10.68;;;9.40;;
17854;SDS011;9053;53.358;6.382;2023-06-26T04:07:26;11.40;;;10.23;;
17854;SDS011;9053;53.358;6.382;2023-06-26T04:09:59;12.93;;;10.13;;
17854;SDS011;9053;53.358;6.382;2023-06-26T04:12:29;9.95;;;8.88;;
17854;SDS011;9053;53.358;6.382;2023-06-26T04:15:01;10.95;;;9.63;;
17854;SDS011;9053;53.358;6.382;2023-06-26T04:17:32;11.75;;;10.32;;
17854;SDS011;9053;53.358;6.382;2023-06-26T04:20:02;11.55;;;10.10;;
17854;SDS011;9053;53.358;6.382;2023-06-26T04:22:35;11.65;;;9.75;;
17854;SDS011;9053;53.358;6.382;2023-06-26T04:25:05;11.15;;;9.05;;
17854;SDS011;9053;53.358;6.382;2023-06-26T04:27:35;12.00;;;9.18;;
17854;SDS011;9053;53.358;6.382;2023-06-26T04:30:10;12.52;;;9.85;;
17854;SDS011;9053;53.358;6.382;2023-06-26T04:32:41;12.02;;;9.30;;
17854;SDS011;9053;53.358;6.382;2023-06-26T04:35:13;11.85;;;9.20;;
17854;SDS011;9053;53.358;6.382;2023-06-26T04:37:43;12.77;;;9.82;;
17854;SDS011;9053;53.358;6.382;2023-06-26T04:40:13;11.10;;;8.80;;
17854;SDS011;9053;53.358;6.382;2023-06-26T04:42:43;12.40;;;8.88;;
17854;SDS011;9053;53.358;6.382;2023-06-26T04:45:15;14.27;;;10.00;;
17854;SDS011;9053;53.358;6.382;2023-06-26T04:47:45;11.95;;;8.90;;
17854;SDS011;9053;53.358;6.382;2023-06-26T04:50:15;13.25;;;9.55;;
17854;SDS011;9053;53.358;6.382;2023-06-26T04:52:45;12.90;;;9.60;;
17854;SDS011;9053;53.358;6.382;2023-06-26T04:55:15;13.50;;;9.45;;
17854;SDS011;9053;53.358;6.382;2023-06-26T04:57:49;16.73;;;10.32;;
17854;SDS011;9053;53.358;6.382;2023-06-26T05:00:21;15.50;;;10.60;;
17854;SDS011;9053;53.358;6.382;2023-06-26T05:02:51;12.82;;;8.88;;
17854;SDS011;9053;53.358;6.382;2023-06-26T05:05:27;15.48;;;9.85;;
17854;SDS011;9053;53.358;6.382;2023-06-26T05:07:57;13.77;;;8.90;;
17854;SDS011;9053;53.358;6.382;2023-06-26T05:10:27;13.65;;;9.07;;
17854;SDS011;9053;53.358;6.382;2023-06-26T05:12:57;12.55;;;7.80;;
17854;SDS011;9053;53.358;6.382;2023-06-26T05:15:29;12.10;;;6.82;;
17854;SDS011;9053;53.358;6.382;2023-06-26T05:17:59;11.60;;;5.63;;
17854;SDS011;9053;53.358;6.382;2023-06-26T05:20:30;10.43;;;4.78;;
17854;SDS011;9053;53.358;6.382;2023-06-26T05:22:59;7.22;;;4.60;;
17854;SDS011;9053;53.358;6.382;2023-06-26T05:25:31;7.57;;;4.57;;
17854;SDS011;9053;53.358;6.382;2023-06-26T05:28:06;7.63;;;4.55;;
17854;SDS011;9053;53.358;6.382;2023-06-26T05:30:41;11.98;;;4.70;;
17854;SDS011;9053;53.358;6.382;2023-06-26T05:33:13;8.80;;;4.43;;
17854;SDS011;9053;53.358;6.382;2023-06-26T05:35:46;11.18;;;4.72;;
17854;SDS011;9053;53.358;6.382;2023-06-26T05:38:18;9.00;;;3.75;;
17854;SDS011;9053;53.358;6.382;2023-06-26T05:40:52;8.27;;;4.03;;
17854;SDS011;9053;53.358;6.382;2023-06-26T05:43:23;10.32;;;4.40;;
17854;SDS011;9053;53.358;6.382;2023-06-26T05:45:57;12.15;;;4.25;;
17854;SDS011;9053;53.358;6.382;2023-06-26T05:48:27;14.57;;;4.10;;
17854;SDS011;9053;53.358;6.382;2023-06-26T05:50:57;11.43;;;3.85;;
17854;SDS011;9053;53.358;6.382;2023-06-26T05:53:28;10.55;;;3.75;;
17854;SDS011;9053;53.358;6.382;2023-06-26T05:55:59;10.10;;;4.10;;
17854;SDS011;9053;53.358;6.382;2023-06-26T05:58:29;10.15;;;4.68;;
17854;SDS011;9053;53.358;6.382;2023-06-26T06:01:02;6.63;;;3.15;;
17854;SDS011;9053;53.358;6.382;2023-06-26T06:03:32;9.50;;;3.53;;
17854;SDS011;9053;53.358;6.382;2023-06-26T06:06:07;7.65;;;2.88;;
17854;SDS011;9053;53.358;6.382;2023-06-26T06:08:40;8.95;;;2.65;;
17854;SDS011;9053;53.358;6.382;2023-06-26T06:11:14;8.57;;;3.00;;
17854;SDS011;9053;53.358;6.382;2023-06-26T06:13:44;9.50;;;3.47;;
17854;SDS011;9053;53.358;6.382;2023-06-26T06:16:17;9.48;;;3.42;;
17854;SDS011;9053;53.358;6.382;2023-06-26T06:18:47;5.85;;;2.92;;
17854;SDS011;9053;53.358;6.382;2023-06-26T06:21:17;8.05;;;3.10;;
17854;SDS011;9053;53.358;6.382;2023-06-26T06:23:46;8.57;;;2.97;;
17854;SDS011;9053;53.358;6.382;2023-06-26T06:26:16;9.43;;;3.42;;
17854;SDS011;9053;53.358;6.382;2023-06-26T06:28:46;12.93;;;2.92;;
17854;SDS011;9053;53.358;6.382;2023-06-26T06:31:19;7.78;;;3.17;;
17854;SDS011;9053;53.358;6.382;2023-06-26T06:33:49;9.00;;;3.13;;
17854;SDS011;9053;53.358;6.382;2023-06-26T06:36:19;5.85;;;2.65;;
17854;SDS011;9053;53.358;6.382;2023-06-26T06:38:49;7.32;;;2.55;;
17854;SDS011;9053;53.358;6.382;2023-06-26T06:41:22;5.88;;;2.60;;
17854;SDS011;9053;53.358;6.382;2023-06-26T06:43:55;8.07;;;2.95;;
17854;SDS011;9053;53.358;6.382;2023-06-26T06:46:28;8.45;;;2.67;;
17854;SDS011;9053;53.358;6.382;2023-06-26T06:48:58;8.00;;;2.90;;
17854;SDS011;9053;53.358;6.382;2023-06-26T06:51:28;6.70;;;2.53;;
17854;SDS011;9053;53.358;6.382;2023-06-26T06:54:01;5.13;;;2.17;;
17854;SDS011;9053;53.358;6.382;2023-06-26T06:56:31;5.70;;;2.35;;
17854;SDS011;9053;53.358;6.382;2023-06-26T06:59:01;5.28;;;2.28;;
17854;SDS011;9053;53.358;6.382;2023-06-26T07:01:34;6.07;;;2.30;;
17854;SDS011;9053;53.358;6.382;2023-06-26T07:04:04;6.20;;;2.53;;
17854;SDS011;9053;53.358;6.382;2023-06-26T07:06:34;4.57;;;2.25;;
17854;SDS011;9053;53.358;6.382;2023-06-26T07:09:04;4.45;;;1.98;;
17854;SDS011;9053;53.358;6.382;2023-06-26T07:11:34;4.78;;;1.80;;
17854;SDS011;9053;53.358;6.382;2023-06-26T07:14:03;4.32;;;2.00;;
17854;SDS011;9053;53.358;6.382;2023-06-26T07:16:36;5.82;;;1.88;;
17854;SDS011;9053;53.358;6.382;2023-06-26T07:19:14;5.28;;;1.90;;
17854;SDS011;9053;53.358;6.382;2023-06-26T07:21:44;5.55;;;1.90;;
17854;SDS011;9053;53.358;6.382;2023-06-26T07:24:14;5.10;;;1.73;;
17854;SDS011;9053;53.358;6.382;2023-06-26T07:26:43;6.32;;;1.75;;
17854;SDS011;9053;53.358;6.382;2023-06-26T07:29:16;7.47;;;2.33;;
17854;SDS011;9053;53.358;6.382;2023-06-26T07:31:48;9.00;;;2.17;;
17854;SDS011;9053;53.358;6.382;2023-06-26T07:34:18;5.05;;;1.70;;
17854;SDS011;9053;53.358;6.382;2023-06-26T07:36:48;4.70;;;1.65;;
17854;SDS011;9053;53.358;6.382;2023-06-26T07:39:18;3.30;;;1.80;;
17854;SDS011;9053;53.358;6.382;2023-06-26T07:41:50;5.20;;;1.80;;
17854;SDS011;9053;53.358;6.382;2023-06-26T07:44:19;4.00;;;1.63;;
17854;SDS011;9053;53.358;6.382;2023-06-26T07:46:56;3.28;;;1.58;;
17854;SDS011;9053;53.358;6.382;2023-06-26T07:49:26;5.20;;;1.80;;
17854;SDS011;9053;53.358;6.382;2023-06-26T07:51:57;4.20;;;2.08;;
17854;SDS011;9053;53.358;6.382;2023-06-26T07:54:27;2.88;;;1.50;;
17854;SDS011;9053;53.358;6.382;2023-06-26T07:56:57;4.65;;;1.95;;
17854;SDS011;9053;53.358;6.382;2023-06-26T07:59:30;4.20;;;1.73;;
17854;SDS011;9053;53.358;6.382;2023-06-26T08:02:03;5.22;;;1.98;;
17854;SDS011;9053;53.358;6.382;2023-06-26T08:04:33;5.63;;;1.70;;
17854;SDS011;9053;53.358;6.382;2023-06-26T08:07:06;5.93;;;1.85;;
17854;SDS011;9053;53.358;6.382;2023-06-26T08:09:38;5.28;;;1.98;;
17854;SDS011;9053;53.358;6.382;2023-06-26T08:12:08;5.88;;;2.17;;
17854;SDS011;9053;53.358;6.382;2023-06-26T08:14:39;2.67;;;1.73;;
17854;SDS011;9053;53.358;6.382;2023-06-26T08:17:11;6.47;;;2.03;;
17854;SDS011;9053;53.358;6.382;2023-06-26T08:19:43;6.72;;;2.03;;
17854;SDS011;9053;53.358;6.382;2023-06-26T08:22:21;5.03;;;1.73;;
17854;SDS011;9053;53.358;6.382;2023-06-26T08:24:51;4.68;;;1.98;;
17854;SDS011;9053;53.358;6.382;2023-06-26T08:27:24;4.93;;;1.70;;
17854;SDS011;9053;53.358;6.382;2023-06-26T08:29:54;4.07;;;2.00;;
17854;SDS011;9053;53.358;6.382;2023-06-26T08:32:26;6.25;;;2.17;;
17854;SDS011;9053;53.358;6.382;2023-06-26T08:34:59;7.82;;;2.90;;
17854;SDS011;9053;53.358;6.382;2023-06-26T08:37:32;6.18;;;2.53;;
17854;SDS011;9053;53.358;6.382;2023-06-26T08:40:06;7.30;;;2.70;;
17854;SDS011;9053;53.358;6.382;2023-06-26T08:42:38;7.88;;;2.03;;
17854;SDS011;9053;53.358;6.382;2023-06-26T08:45:08;3.95;;;1.80;;
17854;SDS011;9053;53.358;6.382;2023-06-26T08:47:40;4.90;;;2.33;;
17854;SDS011;9053;53.358;6.382;2023-06-26T08:50:13;4.03;;;1.90;;
17854;SDS011;9053;53.358;6.382;2023-06-26T08:52:49;3.53;;;2.00;;
17854;SDS011;9053;53.358;6.382;2023-06-26T08:55:23;5.53;;;2.13;;
17854;SDS011;9053;53.358;6.382;2023-06-26T08:57:58;5.93;;;2.10;;
17854;SDS011;9053;53.358;6.382;2023-06-26T09:00:28;3.10;;;2.13;;
17854;SDS011;9053;53.358;6.382;2023-06-26T09:03:02;5.32;;;2.28;;
17854;SDS011;9053;53.358;6.382;2023-06-26T09:05:33;4.53;;;2.00;;
17854;SDS011;9053;53.358;6.382;2023-06-26T09:08:03;6.25;;;2.20;;
17854;SDS011;9053;53.358;6.382;2023-06-26T09:10:34;5.22;;;2.33;;
17854;SDS011;9053;53.358;6.382;2023-06-26T09:13:04;4.57;;;2.00;;
17854;SDS011;9053;53.358;6.382;2023-06-26T09:15:52;4.70;;;2.05;;
17854;SDS011;9053;53.358;6.382;2023-06-26T09:18:25;3.92;;;1.80;;
17854;SDS011;9053;53.358;6.382;2023-06-26T09:20:55;32.63;;;5.60;;
17854;SDS011;9053;53.358;6.382;2023-06-26T09:23:26;5.15;;;1.90;;
17854;SDS011;9053;53.358;6.382;2023-06-26T09:25:56;4.10;;;2.00;;
17854;SDS011;9053;53.358;6.382;2023-06-26T09:28:26;6.15;;;2.17;;
17854;SDS011;9053;53.358;6.382;2023-06-26T09:30:56;3.97;;;1.80;;
17854;SDS011;9053;53.358;6.382;2023-06-26T09:33:37;11.50;;;3.28;;
17854;SDS011;9053;53.358;6.382;2023-06-26T09:36:09;3.47;;;1.90;;
17854;SDS011;9053;53.358;6.382;2023-06-26T09:38:50;8.85;;;2.65;;
17854;SDS011;9053;53.358;6.382;2023-06-26T09:41:20;6.53;;;2.38;;
17854;SDS011;9053;53.358;6.382;2023-06-26T09:43:50;6.03;;;2.40;;
17854;SDS011;9053;53.358;6.382;2023-06-26T09:46:24;3.72;;;2.20;;
17854;SDS011;9053;53.358;6.382;2023-06-26T09:49:03;5.95;;;2.40;;
17854;SDS011;9053;53.358;6.382;2023-06-26T09:51:34;3.28;;;2.30;;
17854;SDS011;9053;53.358;6.382;2023-06-26T09:54:05;4.65;;;2.50;;
17854;SDS011;9053;53.358;6.382;2023-06-26T09:56:36;3.63;;;2.38;;
17854;SDS011;9053;53.358;6.382;2023-06-26T09:59:07;3.95;;;2.30;;
17854;SDS011;9053;53.358;6.382;2023-06-26T10:01:39;3.50;;;2.47;;
17854;SDS011;9053;53.358;6.382;2023-06-26T10:04:12;6.30;;;2.50;;
17854;SDS011;9053;53.358;6.382;2023-06-26T10:06:44;5.10;;;2.60;;
17854;SDS011;9053;53.358;6.382;2023-06-26T10:09:16;4.53;;;2.38;;
17854;SDS011;9053;53.358;6.382;2023-06-26T10:11:49;5.15;;;2.60;;
17854;SDS011;9053;53.358;6.382;2023-06-26T10:14:23;3.75;;;2.60;;
17854;SDS011;9053;53.358;6.382;2023-06-26T10:16:57;5.45;;;2.50;;
17854;SDS011;9053;53.358;6.382;2023-06-26T10:19:31;5.93;;;2.40;;
17854;SDS011;9053;53.358;6.382;2023-06-26T10:22:03;3.47;;;2.00;;
17854;SDS011;9053;53.358;6.382;2023-06-26T10:24:35;5.15;;;3.00;;
17854;SDS011;9053;53.358;6.382;2023-06-26T10:27:08;3.60;;;2.50;;
17854;SDS011;9053;53.358;6.382;2023-06-26T10:29:44;5.93;;;3.17;;
17854;SDS011;9053;53.358;6.382;2023-06-26T10:32:16;5.70;;;2.70;;
17854;SDS011;9053;53.358;6.382;2023-06-26T10:34:50;6.60;;;2.80;;
17854;SDS011;9053;53.358;6.382;2023-06-26T10:37:21;4.60;;;2.45;;
17854;SDS011;9053;53.358;6.382;2023-06-26T10:40:10;5.72;;;2.72;;
17854;SDS011;9053;53.358;6.382;2023-06-26T10:42:41;5.75;;;2.38;;
17854;SDS011;9053;53.358;6.382;2023-06-26T10:45:14;4.68;;;2.20;;
17854;SDS011;9053;53.358;6.382;2023-06-26T10:47:45;4.35;;;2.50;;
17854;SDS011;9053;53.358;6.382;2023-06-26T10:50:22;7.07;;;2.50;;
17854;SDS011;9053;53.358;6.382;2023-06-26T10:55:41;3.17;;;1.80;;
17854;SDS011;9053;53.358;6.382;2023-06-26T11:01:14;4.28;;;1.80;;
17854;SDS011;9053;53.358;6.382;2023-06-26T11:03:49;3.28;;;2.22;;
17854;SDS011;9053;53.358;6.382;2023-06-26T11:06:34;4.13;;;2.20;;
17854;SDS011;9053;53.358;6.382;2023-06-26T11:09:09;3.90;;;2.00;;
17854;SDS011;9053;53.358;6.382;2023-06-26T11:14:32;5.22;;;1.90;;
17854;SDS011;9053;53.358;6.382;2023-06-26T11:17:02;3.25;;;2.00;;
17854;SDS011;9053;53.358;6.382;2023-06-26T11:19:34;3.45;;;1.90;;
17854;SDS011;9053;53.358;6.382;2023-06-26T11:22:06;6.57;;;2.33;;
17854;SDS011;9053;53.358;6.382;2023-06-26T11:24:36;4.35;;;1.63;;
17854;SDS011;9053;53.358;6.382;2023-06-26T11:27:06;5.63;;;1.88;;
17854;SDS011;9053;53.358;6.382;2023-06-26T11:29:36;8.10;;;1.92;;
17854;SDS011;9053;53.358;6.382;2023-06-26T11:32:06;6.03;;;2.10;;
17854;SDS011;9053;53.358;6.382;2023-06-26T11:34:36;5.22;;;1.83;;
17854;SDS011;9053;53.358;6.382;2023-06-26T11:37:10;6.30;;;2.05;;
17854;SDS011;9053;53.358;6.382;2023-06-26T11:39:41;4.43;;;2.13;;
17854;SDS011;9053;53.358;6.382;2023-06-26T11:42:12;6.15;;;1.63;;
17854;SDS011;9053;53.358;6.382;2023-06-26T11:44:43;5.32;;;1.80;;
17854;SDS011;9053;53.358;6.382;2023-06-26T11:47:14;9.20;;;2.08;;
17854;SDS011;9053;53.358;6.382;2023-06-26T11:49:45;5.82;;;1.92;;
17854;SDS011;9053;53.358;6.382;2023-06-26T11:52:23;5.25;;;1.80;;
17854;SDS011;9053;53.358;6.382;2023-06-26T11:54:53;7.78;;;2.08;;
17854;SDS011;9053;53.358;6.382;2023-06-26T11:57:23;4.60;;;1.75;;
17854;SDS011;9053;53.358;6.382;2023-06-26T11:59:53;5.60;;;2.00;;
17854;SDS011;9053;53.358;6.382;2023-06-26T12:02:25;6.90;;;2.17;;
17854;SDS011;9053;53.358;6.382;2023-06-26T12:04:55;8.85;;;2.40;;
17854;SDS011;9053;53.358;6.382;2023-06-26T12:07:28;5.10;;;2.00;;
17854;SDS011;9053;53.358;6.382;2023-06-26T12:09:58;6.22;;;2.00;;
17854;SDS011;9053;53.358;6.382;2023-06-26T12:12:29;4.80;;;2.15;;
17854;SDS011;9053;53.358;6.382;2023-06-26T12:15:00;5.63;;;2.08;;
17854;SDS011;9053;53.358;6.382;2023-06-26T12:17:30;4.75;;;2.17;;
17854;SDS011;9053;53.358;6.382;2023-06-26T12:20:00;3.53;;;1.58;;
17854;SDS011;9053;53.358;6.382;2023-06-26T12:22:36;3.53;;;1.70;;
17854;SDS011;9053;53.358;6.382;2023-06-26T12:25:07;3.88;;;1.80;;
17854;SDS011;9053;53.358;6.382;2023-06-26T12:27:37;4.32;;;1.70;;
17854;SDS011;9053;53.358;6.382;2023-06-26T12:30:07;3.40;;;1.90;;
17854;SDS011;9053;53.358;6.382;2023-06-26T12:32:37;2.60;;;1.55;;
17854;SDS011;9053;53.358;6.382;2023-06-26T12:35:07;4.00;;;1.58;;
17854;SDS011;9053;53.358;6.382;2023-06-26T12:37:41;6.45;;;1.90;;
17854;SDS011;9053;53.358;6.382;2023-06-26T12:40:17;4.35;;;1.80;;
17854;SDS011;9053;53.358;6.382;2023-06-26T12:42:49;3.05;;;1.60;;
17854;SDS011;9053;53.358;6.382;2023-06-26T12:45:19;2.15;;;1.40;;
17854;SDS011;9053;53.358;6.382;2023-06-26T12:48:06;4.43;;;1.73;;
17854;SDS011;9053;53.358;6.382;2023-06-26T12:50:37;4.68;;;1.80;;
17854;SDS011;9053;53.358;6.382;2023-06-26T12:53:15;3.80;;;2.05;;
17854;SDS011;9053;53.358;6.382;2023-06-26T12:55:45;4.15;;;1.63;;
17854;SDS011;9053;53.358;6.382;2023-06-26T12:58:15;3.50;;;1.85;;
17854;SDS011;9053;53.358;6.382;2023-06-26T13:00:45;2.65;;;1.55;;
17854;SDS011;9053;53.358;6.382;2023-06-26T13:03:15;3.63;;;1.70;;
17854;SDS011;9053;53.358;6.382;2023-06-26T13:05:47;5.28;;;1.75;;
17854;SDS011;9053;53.358;6.382;2023-06-26T13:08:19;4.50;;;1.88;;
17854;SDS011;9053;53.358;6.382;2023-06-26T13:10:49;4.40;;;1.90;;
17854;SDS011;9053;53.358;6.382;2023-06-26T13:13:19;4.53;;;1.98;;
17854;SDS011;9053;53.358;6.382;2023-06-26T13:15:49;3.95;;;1.90;;
17854;SDS011;9053;53.358;6.382;2023-06-26T13:18:19;4.20;;;1.77;;
17854;SDS011;9053;53.358;6.382;2023-06-26T13:20:49;9.43;;;2.65;;
17854;SDS011;9053;53.358;6.382;2023-06-26T13:23:22;5.07;;;2.10;;
17854;SDS011;9053;53.358;6.382;2023-06-26T13:25:52;3.65;;;1.90;;
17854;SDS011;9053;53.358;6.382;2023-06-26T13:28:21;5.97;;;2.40;;
17854;SDS011;9053;53.358;6.382;2023-06-26T13:30:51;5.07;;;1.95;;
17854;SDS011;9053;53.358;6.382;2023-06-26T13:33:24;5.15;;;2.08;;
17854;SDS011;9053;53.358;6.382;2023-06-26T13:35:54;9.00;;;2.88;;
17854;SDS011;9053;53.358;6.382;2023-06-26T13:38:26;7.10;;;2.38;;
17854;SDS011;9053;53.358;6.382;2023-06-26T13:40:56;9.52;;;2.22;;
17854;SDS011;9053;53.358;6.382;2023-06-26T13:43:27;4.82;;;2.00;;
17854;SDS011;9053;53.358;6.382;2023-06-26T13:46:00;5.47;;;2.05;;
17854;SDS011;9053;53.358;6.382;2023-06-26T13:48:30;3.75;;;1.98;;
17854;SDS011;9053;53.358;6.382;2023-06-26T13:51:00;6.72;;;2.00;;
17854;SDS011;9053;53.358;6.382;2023-06-26T13:53:32;5.75;;;2.40;;
17854;SDS011;9053;53.358;6.382;2023-06-26T13:56:02;7.05;;;2.25;;
17854;SDS011;9053;53.358;6.382;2023-06-26T13:58:34;7.35;;;2.20;;
17854;SDS011;9053;53.358;6.382;2023-06-26T14:01:06;7.35;;;2.33;;
17854;SDS011;9053;53.358;6.382;2023-06-26T14:03:36;6.45;;;2.15;;
17854;SDS011;9053;53.358;6.382;2023-06-26T14:06:06;6.78;;;2.10;;
17854;SDS011;9053;53.358;6.382;2023-06-26T14:08:38;5.70;;;1.90;;
17854;SDS011;9053;53.358;6.382;2023-06-26T14:11:08;4.97;;;1.95;;
17854;SDS011;9053;53.358;6.382;2023-06-26T14:13:38;7.80;;;2.58;;
17854;SDS011;9053;53.358;6.382;2023-06-26T14:16:08;3.45;;;1.92;;
17854;SDS011;9053;53.358;6.382;2023-06-26T14:18:38;7.10;;;2.13;;
17854;SDS011;9053;53.358;6.382;2023-06-26T14:21:08;6.07;;;2.35;;
17854;SDS011;9053;53.358;6.382;2023-06-26T14:23:40;8.52;;;2.33;;
17854;SDS011;9053;53.358;6.382;2023-06-26T14:26:14;7.45;;;2.50;;
17854;SDS011;9053;53.358;6.382;2023-06-26T14:28:44;7.07;;;2.20;;
17854;SDS011;9053;53.358;6.382;2023-06-26T14:31:14;6.50;;;2.00;;
17854;SDS011;9053;53.358;6.382;2023-06-26T14:33:44;5.20;;;2.00;;
17854;SDS011;9053;53.358;6.382;2023-06-26T14:36:14;4.70;;;2.30;;
17854;SDS011;9053;53.358;6.382;2023-06-26T14:38:46;3.83;;;2.05;;
17854;SDS011;9053;53.358;6.382;2023-06-26T14:41:19;4.10;;;2.03;;
17854;SDS011;9053;53.358;6.382;2023-06-26T14:43:49;8.45;;;2.40;;
17854;SDS011;9053;53.358;6.382;2023-06-26T14:46:20;6.70;;;1.95;;
17854;SDS011;9053;53.358;6.382;2023-06-26T14:48:51;6.68;;;2.17;;
17854;SDS011;9053;53.358;6.382;2023-06-26T14:51:22;6.95;;;2.28;;
17854;SDS011;9053;53.358;6.382;2023-06-26T14:53:55;7.22;;;2.05;;
17854;SDS011;9053;53.358;6.382;2023-06-26T14:56:25;8.35;;;2.22;;
17854;SDS011;9053;53.358;6.382;2023-06-26T14:58:55;5.38;;;2.10;;
17854;SDS011;9053;53.358;6.382;2023-06-26T15:01:25;4.50;;;2.28;;
17854;SDS011;9053;53.358;6.382;2023-06-26T15:03:59;8.35;;;2.45;;
17854;SDS011;9053;53.358;6.382;2023-06-26T15:06:29;7.55;;;2.25;;
17854;SDS011;9053;53.358;6.382;2023-06-26T15:09:02;8.50;;;2.50;;
17854;SDS011;9053;53.358;6.382;2023-06-26T15:11:32;5.63;;;2.15;;
17854;SDS011;9053;53.358;6.382;2023-06-26T15:14:02;6.20;;;2.60;;
17854;SDS011;9053;53.358;6.382;2023-06-26T15:16:32;5.40;;;1.98;;
17854;SDS011;9053;53.358;6.382;2023-06-26T15:19:02;4.63;;;2.38;;
17854;SDS011;9053;53.358;6.382;2023-06-26T15:21:32;7.85;;;2.60;;
17854;SDS011;9053;53.358;6.382;2023-06-26T15:24:05;5.32;;;2.10;;
17854;SDS011;9053;53.358;6.382;2023-06-26T15:26:37;5.63;;;2.10;;
17854;SDS011;9053;53.358;6.382;2023-06-26T15:29:07;6.82;;;2.20;;
17854;SDS011;9053;53.358;6.382;2023-06-26T15:31:37;4.82;;;1.85;;
17854;SDS011;9053;53.358;6.382;2023-06-26T15:34:06;5.85;;;2.15;;